메인 페이지
METAR-TAF:

METAR-TAF

공항 :

샤잘랄 국제공항

다카, 방글라데시

위도: 23-50-34N, 경도: 090-24-02E, 고도: 8m

현재 날씨관측

예보는 25분 전, 00:00시(UTC)에 발표되었습니다.
8kt
온도 29°C
습도 89%
기압 999 hPa
시정: 4000m
고도 1000ft 상공 구름 많음
고도 10000ft 상공 구름 많음
연무

METAR: VGHS 290000Z 17008KT 4000 HZ BKN010 BKN100 29/27 Q0999 TEMPO RA

시각: 06:25 (00:25 UTC)

예보

예보는 1 시간 25분 전, 23:00시(UTC)에 발표되었습니다.
예보 대상 시간: 29일 00시부터 30일 06시까지 (UTC)
16kt
시정: 2300m
고도 1000ft 상공 구름 많음
고도 8000ft 상공 흐림
연무
일시적
29일 00시부터 29일 09시까지 (UTC)
15kt, 순간 최대 풍속 25kt
시정: 2000m
고도 700ft 상공 구름 많음
고도 2500ft 상공 구름 조금, 적란운.
고도 8000ft 상공 흐림
전환 중
29일 09시부터 29일 13시까지 (UTC)
11kt
시정: 3200m
고도 1500ft 상공 구름 조금
고도 10000ft 상공 구름 보통
연무
전환 중
29일 13시부터 29일 17시까지 (UTC)
10kt
시정: 3500m
고도 10000ft 상공 구름 보통
연무
전환 중
29일 17시부터 29일 21시까지 (UTC)
남남동12kt
시정: 3000m
고도 1800ft 상공 구름 보통
고도 10000ft 상공 구름 많음
연무,

TAF: VGHS 282300Z 2900/3006 19016KT 2300 HZ BKN010 OVC080 TEMPO 2900/2909 27015G25KT 2000 TSRA/RA BKN007 FEW025CB OVC080 BECMG 2909/2913 17011KT 3200 HZ FEW015 SCT100 BECMG 2913/2917 18010KT 3500 HZ SCT100 BECMG 2917/2921 15012KT 3000 HZ SCT018 BKN100

4,000개 이상의 공항 관측 자료 및 예보 (METAR 및 TAF 보고).

지도상에서 검색 가능한 기상관측소가 노란 점과 빨간 점으로 표시되어 있습니다.

기상관측소 명을 보려면 표시 위로 마우스를 이동하세요.

날씨 관측과 예보를 보려면 클릭하세요.

지도 변경 : 확대하려면 엑스 표시가 있는 녹색 버튼, 축소하려면 빼기 표시가 있는 녹색 버튼, 다음 페이지의 지도를 보려면 녹색 화살표를 클릭하세요.


METAR-TAF: